createdAt,value
2023-04-06T00:00:52.461Z,3.80
2023-04-06T00:03:21.376Z,3.90
2023-04-06T00:05:50.737Z,3.40
2023-04-06T00:08:19.350Z,3.37
2023-04-06T00:10:47.678Z,3.90
2023-04-06T00:13:16.241Z,3.70
2023-04-06T00:15:44.572Z,3.37
2023-04-06T00:18:14.337Z,3.57
2023-04-06T00:20:42.755Z,3.73
2023-04-06T00:23:11.334Z,3.60
2023-04-06T00:25:39.677Z,3.63
2023-04-06T00:28:08.059Z,4.00
2023-04-06T00:30:36.402Z,4.40
2023-04-06T00:33:05.000Z,4.10
2023-04-06T00:35:34.894Z,3.90
2023-04-06T00:38:03.486Z,3.47
2023-04-06T00:40:32.164Z,3.43
2023-04-06T00:43:00.789Z,3.30
2023-04-06T00:45:30.543Z,3.47
2023-04-06T00:47:59.826Z,3.43
2023-04-06T00:50:28.618Z,3.40
2023-04-06T00:52:58.733Z,3.17
2023-04-06T00:55:29.484Z,3.33
2023-04-06T00:58:01.751Z,3.00
2023-04-06T01:00:34.449Z,3.13
2023-04-06T01:03:06.957Z,3.10
2023-04-06T01:05:42.045Z,3.13
2023-04-06T01:08:20.035Z,3.10
2023-04-06T01:10:48.846Z,2.80
2023-04-06T01:13:29.968Z,2.70
2023-04-06T01:16:03.243Z,2.83
2023-04-06T01:18:48.400Z,3.70
2023-04-06T01:21:31.085Z,3.17
2023-04-06T01:24:15.990Z,2.83
2023-04-06T01:26:58.551Z,3.07
2023-04-06T01:29:30.968Z,2.83
2023-04-06T01:32:01.054Z,2.97
2023-04-06T01:34:31.266Z,3.10
2023-04-06T01:37:04.420Z,3.10
2023-04-06T01:39:35.008Z,2.90
2023-04-06T01:42:06.378Z,3.33
2023-04-06T01:44:38.129Z,3.80
2023-04-06T01:47:11.708Z,3.40
2023-04-06T01:49:40.624Z,3.10
2023-04-06T01:52:09.945Z,3.23
2023-04-06T01:54:43.240Z,3.60
2023-04-06T01:57:16.573Z,3.17
2023-04-06T02:00:10.048Z,3.50
2023-04-06T02:02:50.451Z,3.20
2023-04-06T02:05:23.983Z,3.63
2023-04-06T02:07:54.202Z,3.90
2023-04-06T02:10:32.279Z,3.60
2023-04-06T02:13:04.624Z,3.33
2023-04-06T02:15:33.680Z,3.50
2023-04-06T02:18:02.257Z,3.60
2023-04-06T02:20:30.892Z,3.57
2023-04-06T02:23:01.076Z,4.00
2023-04-06T02:25:29.876Z,3.67
2023-04-06T02:27:59.595Z,3.27
2023-04-06T02:30:33.681Z,3.90
2023-04-06T02:33:02.918Z,3.60
2023-04-06T02:35:37.736Z,3.63
2023-04-06T02:38:06.549Z,3.80
2023-04-06T02:40:34.923Z,3.43
2023-04-06T02:43:14.952Z,3.40
2023-04-06T02:45:43.618Z,3.83
2023-04-06T02:48:13.299Z,3.60
2023-04-06T02:50:42.106Z,3.87
2023-04-06T02:53:10.621Z,3.80
2023-04-06T02:55:41.030Z,3.67
2023-04-06T02:58:09.880Z,3.67
2023-04-06T03:00:49.958Z,4.00
2023-04-06T03:03:18.568Z,3.47
2023-04-06T03:05:48.661Z,3.50
2023-04-06T03:08:20.069Z,4.40
2023-04-06T03:10:48.587Z,4.13
2023-04-06T03:13:19.113Z,4.20
2023-04-06T03:15:52.491Z,4.00
2023-04-06T03:18:25.436Z,4.10
2023-04-06T03:20:55.983Z,3.80
2023-04-06T03:23:29.727Z,4.00
2023-04-06T03:26:01.574Z,3.80
2023-04-06T03:28:29.905Z,3.77
2023-04-06T03:31:03.048Z,4.30
2023-04-06T03:33:50.166Z,3.30
2023-04-06T03:36:24.479Z,3.87
2023-04-06T03:38:54.491Z,3.57
2023-04-06T03:41:23.099Z,3.43
2023-04-06T03:44:01.885Z,3.33
2023-04-06T03:46:31.828Z,3.87
2023-04-06T03:49:01.597Z,3.90
2023-04-06T03:51:30.991Z,3.57
2023-04-06T03:53:59.681Z,3.80
2023-04-06T03:56:28.025Z,4.03
2023-04-06T03:58:56.454Z,3.87
2023-04-06T04:01:25.012Z,3.83
2023-04-06T04:03:55.499Z,3.60
2023-04-06T04:06:24.311Z,3.80
2023-04-06T04:08:52.718Z,3.93
2023-04-06T04:11:21.067Z,3.50
2023-04-06T04:13:55.726Z,3.67
2023-04-06T04:16:24.281Z,3.57
2023-04-06T04:18:55.547Z,3.80
2023-04-06T04:21:26.843Z,3.90
2023-04-06T04:23:55.582Z,4.20
2023-04-06T04:26:24.167Z,3.90
2023-04-06T04:28:52.836Z,3.77
2023-04-06T04:31:23.347Z,3.60
2023-04-06T04:33:57.764Z,4.13
2023-04-06T04:36:32.687Z,4.13
2023-04-06T04:39:04.443Z,4.20
2023-04-06T04:41:38.474Z,3.47
2023-04-06T04:44:10.380Z,3.57
2023-04-06T04:46:38.889Z,3.90
2023-04-06T04:49:10.021Z,3.60
2023-04-06T04:51:38.764Z,3.77
2023-04-06T04:54:13.924Z,4.20
2023-04-06T04:56:43.779Z,3.77
2023-04-06T04:59:22.706Z,4.13
2023-04-06T05:01:58.341Z,3.87
2023-04-06T05:04:41.186Z,3.87
2023-04-06T05:07:14.104Z,4.97
2023-04-06T05:09:43.340Z,3.97
2023-04-06T05:12:12.862Z,4.20
2023-04-06T05:14:52.073Z,4.67
2023-04-06T05:17:22.570Z,4.37
2023-04-06T05:19:53.426Z,4.30
2023-04-06T05:22:26.326Z,4.47
2023-04-06T05:25:09.774Z,4.57
2023-04-06T05:27:40.647Z,4.80
2023-04-06T05:30:19.244Z,4.67
2023-04-06T05:32:50.751Z,5.63
2023-04-06T05:35:21.275Z,4.70
2023-04-06T05:37:53.270Z,4.57
2023-04-06T05:40:25.866Z,5.17
2023-04-06T05:42:54.613Z,4.90
2023-04-06T05:45:23.090Z,4.67
2023-04-06T05:47:56.674Z,5.03
2023-04-06T05:50:30.721Z,5.20
2023-04-06T05:53:00.038Z,5.70
2023-04-06T05:55:33.495Z,5.13
2023-04-06T05:58:19.271Z,6.53
2023-04-06T06:00:49.349Z,6.20
2023-04-06T06:03:19.160Z,6.23
2023-04-06T06:05:54.537Z,6.73
2023-04-06T06:08:31.807Z,6.13
2023-04-06T06:11:04.714Z,6.70
2023-04-06T06:13:33.165Z,6.70
2023-04-06T06:16:06.155Z,6.23
2023-04-06T06:18:37.852Z,6.00
2023-04-06T06:21:08.245Z,6.60
2023-04-06T06:23:37.172Z,6.53
2023-04-06T06:26:06.022Z,5.83
2023-04-06T06:28:34.806Z,5.80
2023-04-06T06:31:03.409Z,6.07
2023-04-06T06:33:32.688Z,6.10
2023-04-06T06:36:01.788Z,5.93
2023-04-06T06:38:33.555Z,5.60
2023-04-06T06:41:02.015Z,6.07
2023-04-06T06:43:33.792Z,6.27
2023-04-06T06:46:07.039Z,5.70
2023-04-06T06:48:35.971Z,5.77
2023-04-06T06:51:04.578Z,5.70
2023-04-06T06:53:34.305Z,5.87
2023-04-06T06:56:03.026Z,6.03
2023-04-06T06:58:32.417Z,6.33
2023-04-06T07:01:02.107Z,6.37
2023-04-06T07:03:32.943Z,6.90
2023-04-06T07:06:01.953Z,6.47
2023-04-06T07:08:30.479Z,6.50
2023-04-06T07:11:00.177Z,7.23
2023-04-06T07:13:28.839Z,7.50
2023-04-06T07:15:59.599Z,7.10
2023-04-06T07:18:28.252Z,7.40
2023-04-06T07:20:57.808Z,6.77
2023-04-06T07:23:27.236Z,7.20
2023-04-06T07:25:55.763Z,8.03
2023-04-06T07:28:25.403Z,7.30
2023-04-06T07:30:55.314Z,7.50
2023-04-06T07:33:24.371Z,7.60
2023-04-06T07:35:53.582Z,7.00
2023-04-06T07:38:22.068Z,7.70
2023-04-06T07:40:50.851Z,7.03
2023-04-06T07:43:19.570Z,7.40
2023-04-06T07:45:49.567Z,7.13
2023-04-06T07:48:19.058Z,7.20
2023-04-06T07:50:51.109Z,7.50
2023-04-06T07:53:20.031Z,8.33
2023-04-06T07:55:48.933Z,10.60
2023-04-06T07:58:17.337Z,8.07
2023-04-06T08:00:45.650Z,7.27
2023-04-06T08:03:15.429Z,7.80
2023-04-06T08:05:44.555Z,8.40
2023-04-06T08:08:12.865Z,8.37
2023-04-06T08:10:41.150Z,7.90
2023-04-06T08:13:10.232Z,8.53
2023-04-06T08:15:39.035Z,7.93
2023-04-06T08:18:07.823Z,9.00
2023-04-06T08:20:38.193Z,8.50
2023-04-06T08:23:07.800Z,9.37
2023-04-06T08:25:37.863Z,9.43
2023-04-06T08:28:07.163Z,9.40
2023-04-06T08:30:35.528Z,9.17
2023-04-06T08:33:04.185Z,9.07
2023-04-06T08:35:33.085Z,9.07
2023-04-06T08:38:02.994Z,8.18
2023-04-06T08:40:31.374Z,8.65
2023-04-06T08:43:09.333Z,7.97
2023-04-06T08:45:38.133Z,8.00
2023-04-06T08:48:08.282Z,8.48
2023-04-06T08:50:40.337Z,7.60
2023-04-06T08:53:10.716Z,7.80
2023-04-06T08:55:40.960Z,7.53
2023-04-06T08:58:10.465Z,7.07
2023-04-06T09:00:42.077Z,8.13
2023-04-06T09:03:14.631Z,7.55
2023-04-06T09:05:43.446Z,7.60
2023-04-06T09:08:13.393Z,7.65
2023-04-06T09:10:43.912Z,7.57
2023-04-06T09:13:12.445Z,7.30
2023-04-06T09:15:41.142Z,7.07
2023-04-06T09:18:10.050Z,7.30
2023-04-06T09:20:38.635Z,7.25
2023-04-06T09:23:07.004Z,7.78
2023-04-06T09:25:36.780Z,6.85
2023-04-06T09:28:08.217Z,7.50
2023-04-06T09:30:37.559Z,7.40
2023-04-06T09:33:06.390Z,7.40
2023-04-06T09:35:34.856Z,7.40
2023-04-06T09:38:13.843Z,7.05
2023-04-06T09:41:00.804Z,6.82
2023-04-06T09:43:32.268Z,6.55
2023-04-06T09:46:04.842Z,6.95
2023-04-06T09:48:38.162Z,7.13
2023-04-06T09:51:09.145Z,7.65
2023-04-06T09:53:43.952Z,7.15
2023-04-06T09:56:20.217Z,6.78
2023-04-06T09:58:54.695Z,6.50
2023-04-06T10:01:25.091Z,6.70
2023-04-06T10:04:05.191Z,6.28
2023-04-06T10:06:37.287Z,6.80
2023-04-06T10:09:10.425Z,6.95
2023-04-06T10:11:40.962Z,7.18
2023-04-06T10:14:12.839Z,6.75
2023-04-06T10:16:42.025Z,6.75
2023-04-06T10:19:20.653Z,6.78
2023-04-06T10:21:56.161Z,6.93
2023-04-06T10:24:26.094Z,7.38
2023-04-06T10:27:04.802Z,7.30
2023-04-06T10:29:48.667Z,7.07
2023-04-06T10:32:17.172Z,7.28
2023-04-06T10:34:47.142Z,8.15
2023-04-06T10:37:17.518Z,7.15
2023-04-06T10:39:50.345Z,7.72
2023-04-06T10:42:25.719Z,6.82
2023-04-06T10:44:54.514Z,7.90
2023-04-06T10:47:22.836Z,8.02
2023-04-06T10:49:51.572Z,7.93
2023-04-06T10:52:20.672Z,8.02
2023-04-06T10:54:50.539Z,8.13
2023-04-06T10:57:31.827Z,8.20
2023-04-06T11:00:00.696Z,7.78
2023-04-06T11:02:29.072Z,8.02
2023-04-06T11:04:59.178Z,8.35
2023-04-06T11:07:30.169Z,8.60
2023-04-06T11:10:13.435Z,7.78
2023-04-06T11:12:47.260Z,7.97
2023-04-06T11:15:16.523Z,7.72
2023-04-06T11:17:46.832Z,8.75
2023-04-06T11:20:15.582Z,8.27
2023-04-06T11:22:54.376Z,8.57
2023-04-06T11:25:23.262Z,8.82
2023-04-06T11:27:54.046Z,7.78
2023-04-06T11:30:22.864Z,8.25
2023-04-06T11:32:51.483Z,8.65
2023-04-06T11:35:24.284Z,8.38
2023-04-06T11:37:53.822Z,8.05
2023-04-06T11:40:25.699Z,8.32
2023-04-06T11:42:58.564Z,7.90
2023-04-06T11:45:28.688Z,8.45
2023-04-06T11:48:02.424Z,8.45
2023-04-06T11:50:36.090Z,8.20
2023-04-06T11:53:05.545Z,8.90
2023-04-06T11:55:41.163Z,7.82
2023-04-06T11:58:11.087Z,8.35
2023-04-06T12:00:39.840Z,8.30
2023-04-06T12:03:08.340Z,8.30
2023-04-06T12:05:36.914Z,7.78
2023-04-06T12:08:05.569Z,7.95
2023-04-06T12:10:34.239Z,8.50
2023-04-06T12:13:02.948Z,8.48
2023-04-06T12:15:33.324Z,8.60
2023-04-06T12:18:01.927Z,8.60
2023-04-06T12:20:30.926Z,8.32
2023-04-06T12:22:59.493Z,7.88
2023-04-06T12:25:27.988Z,8.18
2023-04-06T12:27:56.969Z,8.55
2023-04-06T12:30:26.289Z,7.85
2023-04-06T12:32:56.468Z,7.60
2023-04-06T12:35:25.605Z,8.60
2023-04-06T12:37:53.940Z,8.15
2023-04-06T12:40:23.450Z,8.35
2023-04-06T12:42:51.759Z,8.07
2023-04-06T12:45:20.202Z,8.63
2023-04-06T12:47:48.897Z,8.43
2023-04-06T12:50:19.280Z,8.45
2023-04-06T12:52:47.561Z,9.02
2023-04-06T12:55:16.264Z,9.20
2023-04-06T12:57:45.320Z,9.07
2023-04-06T13:02:47.868Z,8.75
2023-04-06T13:05:19.870Z,9.20
2023-04-06T13:07:48.851Z,8.98
2023-04-06T13:10:17.387Z,9.02
2023-04-06T13:12:46.080Z,8.82
2023-04-06T13:15:14.411Z,8.93
2023-04-06T13:17:43.145Z,9.45
2023-04-06T13:20:12.454Z,8.60
2023-04-06T13:22:42.134Z,8.23
2023-04-06T13:25:11.056Z,8.88
2023-04-06T13:27:39.444Z,8.50
2023-04-06T13:30:10.404Z,8.50
2023-04-06T13:32:39.032Z,9.35
2023-04-06T13:35:09.335Z,8.88
2023-04-06T13:37:37.922Z,8.98
2023-04-06T13:40:09.859Z,8.98
2023-04-06T13:42:38.936Z,9.07
2023-04-06T13:45:08.932Z,8.70
2023-04-06T13:47:37.623Z,8.10
2023-04-06T13:50:07.683Z,8.45
2023-04-06T13:52:37.507Z,8.07
2023-04-06T13:55:08.573Z,8.63
2023-04-06T13:57:37.913Z,9.27
2023-04-06T14:00:08.365Z,8.45
2023-04-06T14:02:37.193Z,8.68
2023-04-06T14:05:06.221Z,8.45
2023-04-06T14:07:34.646Z,8.52
2023-04-06T14:10:04.030Z,8.85
2023-04-06T14:12:34.053Z,8.35
2023-04-06T14:15:05.407Z,7.50
2023-04-06T14:17:34.104Z,7.70
2023-04-06T14:20:03.396Z,8.13
2023-04-06T14:22:32.228Z,8.52
2023-04-06T14:25:00.982Z,7.78
2023-04-06T14:27:29.337Z,8.00
2023-04-06T14:30:00.868Z,7.53
2023-04-06T14:32:29.214Z,8.18
2023-04-06T14:34:57.730Z,7.18
2023-04-06T14:37:26.136Z,7.38
2023-04-06T14:39:54.723Z,6.78
2023-04-06T14:42:23.057Z,7.00
2023-04-06T14:44:51.789Z,6.97
2023-04-06T14:47:22.618Z,6.38
2023-04-06T14:49:54.323Z,7.20
2023-04-06T14:52:23.063Z,6.95
2023-04-06T14:54:51.612Z,6.57
2023-04-06T14:57:19.984Z,7.32
2023-04-06T14:59:50.977Z,6.70
2023-04-06T15:02:19.855Z,6.68
2023-04-06T15:04:49.867Z,6.50
2023-04-06T15:07:18.924Z,6.53
2023-04-06T15:09:47.638Z,6.53
2023-04-06T15:12:15.972Z,6.43
2023-04-06T15:14:44.273Z,6.85
2023-04-06T15:17:12.821Z,7.57
2023-04-06T15:19:43.298Z,6.28
2023-04-06T15:22:14.556Z,7.43
2023-04-06T15:24:43.362Z,6.97
2023-04-06T15:27:11.804Z,7.07
2023-04-06T15:29:40.427Z,7.05
2023-04-06T15:32:09.096Z,6.60
2023-04-06T15:34:37.854Z,6.68
2023-04-06T15:37:06.670Z,6.47
2023-04-06T15:39:37.875Z,6.78
2023-04-06T15:42:06.445Z,6.50
2023-04-06T15:44:35.529Z,6.43
2023-04-06T15:47:04.314Z,6.03
2023-04-06T15:49:33.325Z,6.47
2023-04-06T15:52:01.973Z,6.85
2023-04-06T15:54:30.256Z,6.20
2023-04-06T15:56:59.932Z,6.68
2023-04-06T15:59:28.207Z,6.50
2023-04-06T16:01:56.510Z,6.28
2023-04-06T16:04:24.967Z,7.05
2023-04-06T16:06:53.420Z,6.75
2023-04-06T16:09:21.747Z,6.32
2023-04-06T16:11:51.134Z,6.25
2023-04-06T16:14:20.800Z,6.75
2023-04-06T16:16:50.218Z,6.03
2023-04-06T16:19:18.655Z,6.32
2023-04-06T16:21:47.520Z,5.72
2023-04-06T16:24:15.899Z,6.25
2023-04-06T16:26:45.003Z,5.22
2023-04-06T16:29:13.431Z,6.68
2023-04-06T16:31:46.984Z,6.32
2023-04-06T16:34:16.077Z,5.90
2023-04-06T16:36:44.582Z,6.03
2023-04-06T16:39:13.551Z,6.70
2023-04-06T16:41:41.872Z,6.45
2023-04-06T16:44:11.367Z,6.13
2023-04-06T16:46:41.462Z,6.28
2023-04-06T16:49:11.472Z,6.43
2023-04-06T16:51:42.564Z,5.95
2023-04-06T16:54:11.308Z,7.72
2023-04-06T16:56:39.706Z,7.15
2023-04-06T16:59:10.443Z,6.50
2023-04-06T17:01:39.050Z,6.00
2023-04-06T17:04:07.775Z,6.63
2023-04-06T17:06:37.613Z,6.13
2023-04-06T17:09:05.966Z,6.22
2023-04-06T17:11:46.194Z,7.17
2023-04-06T17:14:16.030Z,7.77
2023-04-06T17:16:44.435Z,7.47
2023-04-06T17:19:12.739Z,8.00
2023-04-06T17:21:43.152Z,9.17
2023-04-06T17:24:12.059Z,7.43
2023-04-06T17:26:40.547Z,6.87
2023-04-06T17:29:09.006Z,7.20
2023-04-06T17:31:37.489Z,6.83
2023-04-06T17:34:06.992Z,6.63
2023-04-06T17:36:35.352Z,7.60
2023-04-06T17:39:05.662Z,9.73
2023-04-06T17:41:34.824Z,7.50
2023-04-06T17:44:04.214Z,6.87
2023-04-06T17:46:33.058Z,6.40
2023-04-06T17:49:01.498Z,7.20
2023-04-06T17:51:31.212Z,6.50
2023-04-06T17:53:59.547Z,6.30
2023-04-06T17:56:31.854Z,6.70
2023-04-06T17:59:01.344Z,5.90
2023-04-06T18:01:31.684Z,5.63
2023-04-06T18:04:00.602Z,5.47
2023-04-06T18:06:28.943Z,5.60
2023-04-06T18:08:57.423Z,5.73
2023-04-06T18:11:25.851Z,5.70
2023-04-06T18:13:56.998Z,5.67
2023-04-06T18:16:26.129Z,5.27
2023-04-06T18:18:56.371Z,5.30
2023-04-06T18:21:27.378Z,4.87
2023-04-06T18:23:56.148Z,5.10
2023-04-06T18:26:25.503Z,4.60
2023-04-06T18:28:55.998Z,4.80
2023-04-06T18:31:24.721Z,5.00
2023-04-06T18:33:54.510Z,4.70
2023-04-06T18:36:23.470Z,5.27
2023-04-06T18:38:52.121Z,5.30
2023-04-06T18:41:21.589Z,6.80
2023-04-06T18:43:50.327Z,7.03
2023-04-06T18:46:21.042Z,8.27
2023-04-06T18:48:49.614Z,7.50
2023-04-06T18:51:18.033Z,4.50
2023-04-06T18:53:46.573Z,4.90
2023-04-06T18:56:16.716Z,4.60
2023-04-06T18:58:46.335Z,4.53
2023-04-06T19:01:24.381Z,4.50
2023-04-06T19:03:53.685Z,4.67
2023-04-06T19:06:23.874Z,5.83
2023-04-06T19:08:52.404Z,9.40
2023-04-06T19:11:23.276Z,8.83
2023-04-06T19:13:51.905Z,7.37
2023-04-06T19:16:20.454Z,6.60
2023-04-06T19:18:50.377Z,5.70
2023-04-06T19:21:20.188Z,5.50
2023-04-06T19:23:50.213Z,5.23
2023-04-06T19:26:22.072Z,4.83
2023-04-06T19:28:50.919Z,4.60
2023-04-06T19:31:21.540Z,5.20
2023-04-06T19:33:52.046Z,5.63
2023-04-06T19:36:20.555Z,4.93
2023-04-06T19:38:48.920Z,4.57
2023-04-06T19:41:17.340Z,5.10
2023-04-06T19:43:46.161Z,4.20
2023-04-06T19:46:15.579Z,4.67
2023-04-06T19:48:44.656Z,4.80
2023-04-06T19:51:14.556Z,4.53
2023-04-06T19:53:43.551Z,4.70
2023-04-06T19:56:11.873Z,4.93
2023-04-06T19:58:41.347Z,5.37
2023-04-06T20:01:09.748Z,5.50
2023-04-06T20:03:38.538Z,5.83
2023-04-06T20:06:07.278Z,5.80
2023-04-06T20:08:37.111Z,5.40
2023-04-06T20:11:07.596Z,6.10
2023-04-06T20:13:36.902Z,5.63
2023-04-06T20:16:05.666Z,5.87
2023-04-06T20:18:34.270Z,6.20
2023-04-06T20:21:03.745Z,6.63
2023-04-06T20:23:34.952Z,6.90
2023-04-06T20:26:04.783Z,8.00
2023-04-06T20:28:33.855Z,8.07
2023-04-06T20:31:02.208Z,7.83
2023-04-06T20:33:30.566Z,7.80
2023-04-06T20:35:59.597Z,7.83
2023-04-06T20:38:32.846Z,9.27
2023-04-06T20:41:02.610Z,9.30
2023-04-06T20:43:32.804Z,13.40
2023-04-06T20:46:02.687Z,20.33
2023-04-06T20:48:33.672Z,15.87
2023-04-06T20:51:03.978Z,7.53
2023-04-06T20:53:32.468Z,6.27
2023-04-06T20:56:03.700Z,6.90
2023-04-06T20:58:33.478Z,6.90
2023-04-06T21:01:01.871Z,7.07
2023-04-06T21:03:30.471Z,7.57
2023-04-06T21:06:02.183Z,8.30
2023-04-06T21:08:30.882Z,8.23
2023-04-06T21:10:59.226Z,7.93
2023-04-06T21:13:27.787Z,7.13
2023-04-06T21:15:57.697Z,7.67
2023-04-06T21:18:26.215Z,7.63
2023-04-06T21:20:55.813Z,8.27
2023-04-06T21:23:24.323Z,7.93
2023-04-06T21:25:55.420Z,8.47
2023-04-06T21:28:24.304Z,8.17
2023-04-06T21:30:53.816Z,8.07
2023-04-06T21:33:23.993Z,7.93
2023-04-06T21:35:53.618Z,7.83
2023-04-06T21:38:22.155Z,7.67
2023-04-06T21:40:56.712Z,7.77
2023-04-06T21:43:25.193Z,7.83
2023-04-06T21:45:53.822Z,8.23
2023-04-06T21:48:23.653Z,8.10
2023-04-06T21:50:52.353Z,8.63
2023-04-06T21:53:21.205Z,8.50
2023-04-06T21:55:51.081Z,8.13
2023-04-06T21:58:19.578Z,8.40
2023-04-06T22:00:47.915Z,9.10
2023-04-06T22:03:16.613Z,7.73
2023-04-06T22:05:46.787Z,9.07
2023-04-06T22:08:25.539Z,9.17
2023-04-06T22:10:58.730Z,9.40
2023-04-06T22:13:28.257Z,9.90
2023-04-06T22:15:57.133Z,9.23
2023-04-06T22:18:25.804Z,8.90
2023-04-06T22:20:56.556Z,8.67
2023-04-06T22:23:25.070Z,8.30
2023-04-06T22:25:54.479Z,7.30
2023-04-06T22:28:22.815Z,7.20
2023-04-06T22:30:51.189Z,6.67
2023-04-06T22:33:19.638Z,8.00
2023-04-06T22:35:48.146Z,7.53
2023-04-06T22:38:17.865Z,8.23
2023-04-06T22:40:46.605Z,9.00
2023-04-06T22:43:14.889Z,8.37
2023-04-06T22:45:43.143Z,8.10
2023-04-06T22:48:11.969Z,8.30
2023-04-06T22:50:40.903Z,8.07
2023-04-06T22:53:09.279Z,8.53
2023-04-06T22:55:41.252Z,7.97
2023-04-06T22:58:09.640Z,8.40
2023-04-06T23:00:38.315Z,9.13
2023-04-06T23:03:06.798Z,8.80
2023-04-06T23:05:35.276Z,8.80
2023-04-06T23:08:03.671Z,7.97
2023-04-06T23:10:32.025Z,8.40
2023-04-06T23:13:01.708Z,9.03
2023-04-06T23:15:30.134Z,8.87
2023-04-06T23:17:58.518Z,8.30
2023-04-06T23:20:27.101Z,8.63
2023-04-06T23:22:56.138Z,8.67
2023-04-06T23:25:25.025Z,8.57
2023-04-06T23:27:53.660Z,8.43
2023-04-06T23:30:23.873Z,8.03
2023-04-06T23:32:52.843Z,8.20
2023-04-06T23:35:21.413Z,8.07
2023-04-06T23:37:49.746Z,7.70
2023-04-06T23:40:18.426Z,8.27
2023-04-06T23:42:46.829Z,7.87
2023-04-06T23:45:15.206Z,8.03
2023-04-06T23:47:45.953Z,8.20
2023-04-06T23:50:14.496Z,7.70
2023-04-06T23:52:42.972Z,8.10
2023-04-06T23:55:11.908Z,8.07
2023-04-06T23:57:40.545Z,8.90
